Time;durP1;ratioP1;P1;durP2;ratioP2;P2;SDS_P1;SDS_P2;PMS_P1;PMS_P2;Temp;Humidity;BMP_temperature;BMP_pressure;BME280_temperature;BME280_humidity;BME280_pressure;Samples;Min_cycle;Max_cycle;Signal;HPM_P1;HPM_P2
2022/07/29 00:00:18;;;;;;;0.40;0.40;;;15.70;99.90;;;;;;5094156;28;20254;-66
2022/07/29 00:03:06;;;;;;;0.40;0.40;;;15.70;99.90;;;;;;5094571;28;20193;-66
2022/07/29 00:05:55;;;;;;;0.40;0.40;;;15.60;99.90;;;;;;5093797;28;20204;-66
2022/07/29 00:08:43;;;;;;;0.55;0.55;;;15.60;99.90;;;;;;5094635;28;20247;-67
2022/07/29 00:11:32;;;;;;;0.40;0.40;;;15.60;99.90;;;;;;5091406;28;20207;-67
2022/07/29 00:14:20;;;;;;;0.40;0.40;;;15.50;99.90;;;;;;5094788;28;20201;-69
2022/07/29 00:17:09;;;;;;;0.40;0.40;;;15.50;99.90;;;;;;5091306;28;20212;-67
2022/07/29 00:19:57;;;;;;;0.40;0.40;;;15.50;99.90;;;;;;5088661;28;20216;-67
2022/07/29 00:22:45;;;;;;;0.40;0.40;;;15.50;99.90;;;;;;5082766;28;20208;-66
2022/07/29 00:25:33;;;;;;;0.40;0.40;;;15.50;99.90;;;;;;5078555;28;20205;-66
2022/07/29 00:28:22;;;;;;;0.40;0.40;;;15.40;99.90;;;;;;5078684;28;20207;-67
2022/07/29 00:31:11;;;;;;;0.40;0.40;;;15.40;99.90;;;;;;5076492;28;20676;-67
2022/07/29 00:33:59;;;;;;;0.40;0.40;;;15.30;99.90;;;;;;5074840;28;20284;-67
2022/07/29 00:36:46;;;;;;;0.40;0.40;;;15.30;99.90;;;;;;5076810;28;20220;-67
2022/07/29 00:39:34;;;;;;;0.40;0.40;;;15.30;99.90;;;;;;5075822;28;20406;-67
2022/07/29 00:42:23;;;;;;;0.40;0.40;;;15.30;99.90;;;;;;5075285;28;20201;-67
2022/07/29 00:45:13;;;;;;;0.40;0.40;;;15.30;99.90;;;;;;5075247;28;20204;-67
2022/07/29 00:48:03;;;;;;;0.40;0.40;;;15.20;99.90;;;;;;5075682;28;20212;-67
2022/07/29 00:50:51;;;;;;;0.40;0.40;;;15.30;99.90;;;;;;5076697;28;20610;-67
2022/07/29 00:53:39;;;;;;;0.40;0.40;;;15.30;99.90;;;;;;5076803;28;20209;-67
2022/07/29 00:56:30;;;;;;;0.40;0.40;;;15.30;99.90;;;;;;5078725;28;20234;-67
2022/07/29 00:59:18;;;;;;;0.40;0.40;;;15.20;99.90;;;;;;5096431;28;20224;-67
2022/07/29 01:02:08;;;;;;;0.40;0.40;;;15.20;99.90;;;;;;5095848;28;20560;-67
2022/07/29 01:04:57;;;;;;;0.40;0.40;;;15.20;99.90;;;;;;5095655;28;20202;-67
2022/07/29 01:07:47;;;;;;;0.40;0.40;;;15.10;99.90;;;;;;5085737;28;20220;-67
2022/07/29 01:10:39;;;;;;;0.40;0.40;;;15.10;99.90;;;;;;5081659;28;20224;-67
2022/07/29 01:13:27;;;;;;;0.50;0.50;;;15.10;99.90;;;;;;5075904;28;20197;-67
2022/07/29 01:16:22;;;;;;;0.40;0.40;;;15.10;99.90;;;;;;5074277;28;20196;-67
2022/07/29 01:19:32;;;;;;;0.40;0.40;;;15.10;99.90;;;;;;5073940;28;20272;-67
2022/07/29 01:22:32;;;;;;;0.40;0.40;;;15.00;99.90;;;;;;5074108;28;20205;-67
2022/07/29 01:25:49;;;;;;;0.40;0.40;;;15.10;99.90;;;;;;5074677;28;20576;-67
2022/07/29 01:28:59;;;;;;;0.40;0.40;;;15.00;99.90;;;;;;5073613;28;20735;-67
2022/07/29 01:31:57;;;;;;;0.40;0.40;;;14.90;99.90;;;;;;5074518;28;20200;-67
2022/07/29 01:34:51;;;;;;;0.40;0.40;;;14.90;99.90;;;;;;5075403;28;20196;-67
2022/07/29 01:37:46;;;;;;;0.40;0.40;;;14.90;99.90;;;;;;5074277;28;20207;-67
2022/07/29 01:40:37;;;;;;;0.40;0.40;;;14.80;99.90;;;;;;5073845;28;20216;-66
2022/07/29 01:43:37;;;;;;;0.40;0.40;;;14.70;99.90;;;;;;5074966;28;20627;-66
2022/07/29 01:46:32;;;;;;;0.40;0.40;;;14.80;99.90;;;;;;5074540;28;20595;-66
2022/07/29 01:49:24;;;;;;;0.40;0.40;;;14.80;99.90;;;;;;5074099;28;20220;-67
2022/07/29 01:52:20;;;;;;;0.40;0.40;;;14.80;99.90;;;;;;5073554;28;20197;-66
2022/07/29 01:55:14;;;;;;;0.40;0.40;;;14.80;99.90;;;;;;5073509;28;20604;-66
2022/07/29 01:58:05;;;;;;;0.40;0.40;;;14.70;99.90;;;;;;5090750;28;20200;-67
2022/07/29 02:00:56;;;;;;;0.40;0.40;;;14.80;99.90;;;;;;5094105;28;20202;-66
2022/07/29 02:03:47;;;;;;;0.40;0.40;;;14.80;99.90;;;;;;5093560;28;20196;-67
2022/07/29 02:06:38;;;;;;;0.40;0.40;;;14.80;99.90;;;;;;5093781;28;20200;-67
2022/07/29 02:09:28;;;;;;;0.40;0.40;;;14.90;99.90;;;;;;5093413;28;20239;-68
2022/07/29 02:12:18;;;;;;;0.40;0.40;;;14.80;99.90;;;;;;5093728;28;20225;-67
2022/07/29 02:15:09;;;;;;;0.40;0.40;;;14.90;99.90;;;;;;5093907;28;20207;-66
2022/07/29 02:18:02;;;;;;;0.40;0.40;;;14.90;99.90;;;;;;5093471;28;20220;-66
2022/07/29 02:20:55;;;;;;;0.40;0.40;;;14.90;99.90;;;;;;5093933;28;20195;-66
2022/07/29 02:23:45;;;;;;;0.40;0.40;;;14.90;99.90;;;;;;5093664;28;20196;-66
2022/07/29 02:26:40;;;;;;;0.40;0.40;;;15.10;99.90;;;;;;5094008;28;20301;-66
2022/07/29 02:29:30;;;;;;;0.40;0.40;;;14.90;99.90;;;;;;5092698;28;20242;-66
2022/07/29 02:32:21;;;;;;;0.50;0.50;;;15.00;99.90;;;;;;5092798;28;20196;-66
2022/07/29 02:35:11;;;;;;;0.40;0.40;;;15.00;99.90;;;;;;5093337;28;20214;-67
2022/07/29 02:41:11;;;;;;;0.40;0.40;;;15.00;99.90;;;;;;5092797;28;20254;-67
2022/07/29 02:44:10;;;;;;;0.40;0.40;;;15.00;99.90;;;;;;5092391;28;20208;-67
2022/07/29 02:47:05;;;;;;;0.40;0.40;;;15.00;99.90;;;;;;5092813;28;20203;-67
2022/07/29 02:49:57;;;;;;;0.40;0.40;;;15.00;99.90;;;;;;5092022;28;20578;-69
2022/07/29 02:52:55;;;;;;;0.40;0.40;;;15.00;99.90;;;;;;5092283;28;20219;-66
2022/07/29 02:55:50;;;;;;;0.40;0.40;;;15.00;99.90;;;;;;5092292;28;20196;-67
2022/07/29 02:58:42;;;;;;;0.40;0.40;;;14.90;99.90;;;;;;5072277;28;20193;-67
2022/07/29 03:01:33;;;;;;;0.40;0.40;;;14.90;99.90;;;;;;5071584;28;20196;-67
2022/07/29 03:04:25;;;;;;;0.40;0.40;;;14.80;99.90;;;;;;5073318;28;20247;-67
2022/07/29 03:07:16;;;;;;;0.40;0.40;;;14.80;99.90;;;;;;5071528;28;20333;-67
2022/07/29 03:10:07;;;;;;;0.40;0.40;;;14.80;99.90;;;;;;5072161;28;20691;-67
2022/07/29 03:13:03;;;;;;;0.40;0.40;;;14.80;99.90;;;;;;5072796;28;20215;-67
2022/07/29 03:15:52;;;;;;;0.40;0.40;;;14.70;99.90;;;;;;5071376;28;20696;-67
2022/07/29 03:18:41;;;;;;;0.40;0.40;;;14.80;99.90;;;;;;5072499;28;20188;-67
2022/07/29 03:21:29;;;;;;;0.40;0.40;;;14.70;99.90;;;;;;5074525;28;20200;-67
2022/07/29 03:24:28;;;;;;;0.40;0.40;;;14.70;99.90;;;;;;5092107;28;20196;-67
2022/07/29 03:27:16;;;;;;;0.40;0.40;;;14.60;99.90;;;;;;5092130;28;20672;-66
2022/07/29 03:30:07;;;;;;;0.40;0.40;;;14.70;99.90;;;;;;5092082;28;20215;-67
2022/07/29 03:32:55;;;;;;;0.40;0.40;;;14.70;99.90;;;;;;5091890;28;20398;-67
2022/07/29 03:35:45;;;;;;;0.40;0.40;;;14.70;99.90;;;;;;5093495;28;20664;-67
2022/07/29 03:38:36;;;;;;;0.40;0.40;;;14.50;99.90;;;;;;5091808;28;20850;-67
2022/07/29 03:41:25;;;;;;;0.40;0.40;;;14.70;99.90;;;;;;5092746;28;20261;-67
2022/07/29 03:44:16;;;;;;;0.40;0.40;;;14.70;99.90;;;;;;5091907;28;20915;-66
2022/07/29 03:47:08;;;;;;;0.40;0.40;;;14.70;99.90;;;;;;5093011;28;20206;-67
2022/07/29 03:50:02;;;;;;;0.40;0.40;;;14.80;99.90;;;;;;5091384;28;20805;-67
2022/07/29 03:52:52;;;;;;;2.93;2.83;;;15.00;99.90;;;;;;5091675;28;20419;-67
2022/07/29 03:55:43;;;;;;;0.40;0.40;;;15.00;99.90;;;;;;5091879;28;20207;-67
2022/07/29 03:58:33;;;;;;;0.40;0.40;;;15.10;99.90;;;;;;5071353;28;20189;-67
2022/07/29 04:01:22;;;;;;;0.40;0.40;;;15.10;99.90;;;;;;5071794;28;20423;-67
2022/07/29 04:04:12;;;;;;;0.40;0.40;;;15.10;99.90;;;;;;5071346;28;20204;-67
2022/07/29 04:07:01;;;;;;;0.50;0.50;;;15.30;99.90;;;;;;5070817;28;20669;-67
2022/07/29 04:09:49;;;;;;;0.80;0.80;;;15.30;99.90;;;;;;5070936;28;20236;-67
2022/07/29 04:12:37;;;;;;;0.40;0.40;;;15.40;99.90;;;;;;5071326;28;20197;-67
2022/07/29 04:15:28;;;;;;;0.40;0.40;;;15.40;99.90;;;;;;5070712;28;20204;-67
2022/07/29 04:18:18;;;;;;;0.40;0.40;;;15.50;99.90;;;;;;5071500;28;20204;-67
2022/07/29 04:21:10;;;;;;;0.40;0.40;;;15.60;99.90;;;;;;5071589;28;20228;-66
2022/07/29 04:23:59;;;;;;;0.40;0.40;;;15.80;99.90;;;;;;5071788;28;20743;-67
2022/07/29 04:26:48;;;;;;;0.40;0.40;;;15.80;99.90;;;;;;5075536;28;20200;-67
2022/07/29 04:29:36;;;;;;;0.40;0.40;;;16.10;99.90;;;;;;5074676;28;20217;-67
2022/07/29 04:32:44;;;;;;;0.40;0.40;;;16.20;99.90;;;;;;5074524;28;20200;-67
2022/07/29 04:35:34;;;;;;;0.40;0.40;;;16.40;99.90;;;;;;5075365;28;20245;-66
2022/07/29 04:38:27;;;;;;;0.40;0.40;;;16.50;99.90;;;;;;5075321;28;20443;-67
2022/07/29 04:41:15;;;;;;;0.40;0.40;;;16.60;99.90;;;;;;5074916;28;20258;-67
2022/07/29 04:44:07;;;;;;;0.40;0.40;;;16.80;99.90;;;;;;5075367;28;20723;-66
2022/07/29 04:46:57;;;;;;;0.40;0.40;;;16.90;99.90;;;;;;5074641;28;20200;-66
2022/07/29 04:49:45;;;;;;;0.40;0.40;;;17.00;99.90;;;;;;5074983;28;20220;-66
2022/07/29 04:52:34;;;;;;;0.40;0.40;;;17.10;99.90;;;;;;5075006;28;20227;-67
2022/07/29 04:55:24;;;;;;;0.40;0.40;;;17.10;99.90;;;;;;5074205;28;20218;-66
2022/07/29 04:58:12;;;;;;;0.40;0.40;;;17.20;99.90;;;;;;5092860;28;20204;-66
2022/07/29 05:01:00;;;;;;;0.40;0.40;;;17.20;99.90;;;;;;5096063;28;20222;-66
2022/07/29 05:03:49;;;;;;;0.40;0.40;;;17.40;99.90;;;;;;5094798;28;20341;-67
2022/07/29 05:06:37;;;;;;;0.40;0.40;;;17.40;99.90;;;;;;5095595;28;20207;-66
2022/07/29 05:09:25;;;;;;;0.40;0.40;;;17.50;99.90;;;;;;5099937;28;20227;-67
2022/07/29 05:12:14;;;;;;;0.50;0.50;;;17.60;99.90;;;;;;5106175;28;20205;-67
2022/07/29 05:15:02;;;;;;;0.40;0.40;;;17.60;99.90;;;;;;5104150;28;20208;-67
2022/07/29 05:17:50;;;;;;;0.40;0.40;;;17.60;99.90;;;;;;5096835;28;20204;-67
2022/07/29 05:20:39;;;;;;;0.40;0.40;;;17.60;99.90;;;;;;5095521;28;20208;-67
2022/07/29 05:23:27;;;;;;;0.40;0.40;;;17.60;99.90;;;;;;5095714;28;20200;-67
2022/07/29 05:26:15;;;;;;;0.40;0.40;;;17.60;99.90;;;;;;5094489;28;20575;-67
2022/07/29 05:29:04;;;;;;;0.40;0.40;;;17.60;99.90;;;;;;5094127;28;20526;-67
2022/07/29 05:31:52;;;;;;;0.40;0.40;;;17.60;99.90;;;;;;5094888;28;20678;-66
2022/07/29 05:34:41;;;;;;;0.40;0.40;;;17.80;99.90;;;;;;5093905;28;20200;-67
2022/07/29 05:37:38;;;;;;;0.40;0.40;;;18.00;99.90;;;;;;5096251;28;20196;-66
2022/07/29 05:40:27;;;;;;;0.40;0.40;;;18.10;99.90;;;;;;5094596;28;20564;-67
2022/07/29 05:43:15;;;;;;;0.40;0.40;;;18.30;99.90;;;;;;5094123;28;20196;-67
2022/07/29 05:46:04;;;;;;;0.47;0.47;;;18.40;99.90;;;;;;5095016;28;20203;-66
2022/07/29 05:48:53;;;;;;;0.40;0.40;;;18.40;99.90;;;;;;5095469;28;20644;-66
2022/07/29 05:51:41;;;;;;;0.57;0.57;;;18.40;99.90;;;;;;5093993;28;20196;-67
2022/07/29 05:54:30;;;;;;;0.40;0.40;;;18.40;99.90;;;;;;5094409;28;20218;-66
2022/07/29 05:57:18;;;;;;;0.40;0.40;;;18.50;99.90;;;;;;5083729;28;20192;-67
2022/07/29 06:00:08;;;;;;;0.40;0.40;;;18.40;99.90;;;;;;5075611;28;20709;-67
2022/07/29 06:02:57;;;;;;;0.40;0.40;;;18.40;99.90;;;;;;5073680;28;20196;-67
2022/07/29 06:05:45;;;;;;;0.40;0.40;;;18.50;99.90;;;;;;5076204;28;20223;-67
2022/07/29 06:08:34;;;;;;;0.40;0.40;;;18.80;99.90;;;;;;5076098;28;20207;-67
2022/07/29 06:11:22;;;;;;;0.40;0.40;;;18.80;99.90;;;;;;5074767;28;20199;-67
2022/07/29 06:14:10;;;;;;;0.40;0.40;;;19.00;99.90;;;;;;5075393;28;20212;-67
2022/07/29 06:16:59;;;;;;;0.52;0.52;;;19.20;99.90;;;;;;5074615;28;20572;-66
2022/07/29 06:19:48;;;;;;;0.40;0.40;;;19.30;99.90;;;;;;5075128;28;20219;-67
2022/07/29 06:22:36;;;;;;;3.90;3.60;;;19.40;99.90;;;;;;5074566;28;20250;-67
2022/07/29 06:25:25;;;;;;;0.40;0.40;;;19.40;99.90;;;;;;5075045;28;20211;-67
2022/07/29 06:28:13;;;;;;;0.40;0.40;;;19.40;99.90;;;;;;5076204;28;20208;-67
2022/07/29 06:31:01;;;;;;;0.40;0.40;;;19.60;99.90;;;;;;5075050;28;20223;-67
2022/07/29 06:33:49;;;;;;;0.40;0.40;;;19.70;99.90;;;;;;5075297;28;20201;-67
2022/07/29 06:36:39;;;;;;;0.40;0.40;;;19.90;99.90;;;;;;5074382;28;20193;-67
2022/07/29 06:39:28;;;;;;;0.40;0.40;;;20.00;99.90;;;;;;5073104;28;20227;-66
2022/07/29 06:42:16;;;;;;;0.40;0.40;;;20.10;99.90;;;;;;5071879;28;20203;-67
2022/07/29 06:45:04;;;;;;;0.40;0.40;;;20.40;99.90;;;;;;5074089;28;20207;-67
2022/07/29 06:47:56;;;;;;;0.40;0.40;;;20.50;99.90;;;;;;5072184;28;20696;-66
2022/07/29 06:50:44;;;;;;;0.40;0.40;;;20.50;99.90;;;;;;5073312;28;20221;-67
2022/07/29 06:53:34;;;;;;;0.40;0.40;;;20.60;99.90;;;;;;5073052;28;20215;-67
2022/07/29 06:56:22;;;;;;;0.50;0.50;;;20.60;99.90;;;;;;5074106;28;20677;-67
2022/07/29 06:59:12;;;;;;;0.40;0.40;;;20.40;99.90;;;;;;5093516;28;20217;-67
2022/07/29 07:02:00;;;;;;;0.40;0.40;;;20.20;99.90;;;;;;5093423;28;20191;-67
2022/07/29 07:04:48;;;;;;;0.40;0.40;;;20.10;99.90;;;;;;5092821;28;20248;-67
2022/07/29 07:07:37;;;;;;;0.40;0.40;;;20.00;99.90;;;;;;5093462;28;20188;-67
2022/07/29 07:10:26;;;;;;;0.40;0.40;;;19.90;99.90;;;;;;5092264;28;20216;-67
2022/07/29 07:13:16;;;;;;;0.40;0.40;;;19.80;99.90;;;;;;5093276;28;20206;-67
2022/07/29 07:16:05;;;;;;;0.40;0.40;;;19.70;99.90;;;;;;5093094;28;20188;-66
2022/07/29 07:18:53;;;;;;;0.40;0.40;;;19.50;99.90;;;;;;5092384;28;20223;-67
2022/07/29 07:21:41;;;;;;;0.40;0.40;;;19.40;99.90;;;;;;5093272;28;20591;-67
2022/07/29 07:24:29;;;;;;;0.40;0.40;;;19.20;99.90;;;;;;5092205;28;20203;-67
2022/07/29 07:27:19;;;;;;;0.50;0.50;;;19.10;99.90;;;;;;5092525;28;20204;-66
2022/07/29 07:30:08;;;;;;;0.40;0.40;;;18.90;99.90;;;;;;5092860;28;20223;-67
2022/07/29 07:32:56;;;;;;;0.40;0.40;;;18.90;99.90;;;;;;5092834;28;20247;-67
2022/07/29 07:35:44;;;;;;;0.40;0.40;;;18.90;99.90;;;;;;5092990;28;20203;-66
2022/07/29 07:38:34;;;;;;;0.40;0.40;;;19.20;99.90;;;;;;5092496;28;20200;-67
2022/07/29 07:41:23;;;;;;;0.40;0.40;;;19.30;99.90;;;;;;5092892;28;20196;-69
2022/07/29 07:44:12;;;;;;;0.50;0.50;;;19.40;99.90;;;;;;5092546;28;20469;-66
2022/07/29 07:47:03;;;;;;;0.40;0.40;;;19.60;99.90;;;;;;5093346;28;20204;-66
2022/07/29 07:49:59;;;;;;;0.40;0.40;;;19.80;99.90;;;;;;5091324;28;20311;-66
2022/07/29 07:52:50;;;;;;;0.40;0.40;;;19.90;99.90;;;;;;5092597;28;20200;-66
2022/07/29 07:55:41;;;;;;;0.40;0.40;;;20.00;99.90;;;;;;5093219;28;20200;-66
2022/07/29 07:58:49;;;;;;;0.40;0.40;;;20.20;99.90;;;;;;5092441;28;20353;-67
2022/07/29 08:01:38;;;;;;;0.40;0.40;;;20.40;99.90;;;;;;5096857;28;20199;-67
2022/07/29 08:04:42;;;;;;;0.40;0.40;;;20.60;99.90;;;;;;5096558;28;20286;-67
2022/07/29 08:07:30;;;;;;;0.40;0.40;;;20.70;99.90;;;;;;5096172;28;20672;-67
2022/07/29 08:13:24;;;;;;;0.40;0.40;;;20.90;99.90;;;;;;5096831;28;20200;-67
2022/07/29 08:16:14;;;;;;;0.70;0.70;;;21.00;99.90;;;;;;5095821;28;20254;-67
2022/07/29 08:19:04;;;;;;;0.40;0.40;;;21.20;99.90;;;;;;5095379;28;20285;-67
2022/07/29 08:21:53;;;;;;;0.40;0.40;;;21.30;99.90;;;;;;5096314;28;20207;-67
2022/07/29 08:24:51;;;;;;;0.40;0.40;;;21.40;99.90;;;;;;5094930;28;20196;-67
2022/07/29 08:27:40;;;;;;;0.40;0.40;;;21.70;99.90;;;;;;5096287;28;20204;-67
2022/07/29 08:30:32;;;;;;;0.40;0.40;;;21.70;99.90;;;;;;5095788;28;20220;-68
2022/07/29 08:33:20;;;;;;;0.40;0.40;;;21.80;99.90;;;;;;5097716;28;20196;-68
2022/07/29 08:36:09;;;;;;;0.40;0.40;;;22.00;99.90;;;;;;5096393;28;20249;-68
2022/07/29 08:38:58;;;;;;;0.40;0.40;;;22.20;99.90;;;;;;5095928;28;20212;-68
2022/07/29 08:41:47;;;;;;;0.40;0.40;;;22.50;99.90;;;;;;5095696;28;20200;-68
2022/07/29 08:44:45;;;;;;;0.40;0.40;;;22.50;99.90;;;;;;5095215;28;20282;-68
2022/07/29 08:47:35;;;;;;;0.40;0.40;;;22.70;99.90;;;;;;5096064;28;20207;-68
2022/07/29 08:50:24;;;;;;;0.40;0.40;;;22.90;99.50;;;;;;5096872;28;20216;-68
2022/07/29 08:53:15;;;;;;;0.40;0.40;;;23.10;98.70;;;;;;5095797;28;20200;-68
2022/07/29 08:56:04;;;;;;;0.40;0.40;;;23.20;98.00;;;;;;5094126;28;20207;-68
2022/07/29 08:58:53;;;;;;;0.40;0.40;;;23.30;97.60;;;;;;5076708;28;20254;-68
2022/07/29 09:01:44;;;;;;;0.40;0.40;;;23.30;96.90;;;;;;5075015;28;20188;-68
2022/07/29 09:04:36;;;;;;;0.40;0.40;;;23.40;96.50;;;;;;5076035;28;20208;-68
2022/07/29 09:07:24;;;;;;;0.40;0.40;;;23.50;96.00;;;;;;5074959;28;20200;-68
2022/07/29 09:10:23;;;;;;;0.40;0.40;;;23.80;96.00;;;;;;5073763;28;20239;-66
2022/07/29 09:13:11;;;;;;;0.40;0.40;;;24.00;95.00;;;;;;5074907;28;20196;-66
2022/07/29 09:16:00;;;;;;;0.40;0.40;;;24.20;94.00;;;;;;5074710;28;20211;-67
2022/07/29 09:18:54;;;;;;;1.15;1.13;;;24.40;94.30;;;;;;5080748;28;20224;-67
2022/07/29 09:22:00;;;;;;;0.50;0.50;;;24.70;93.30;;;;;;5097000;28;20200;-68
2022/07/29 09:24:50;;;;;;;0.50;0.50;;;24.90;92.30;;;;;;5097964;28;20219;-67
2022/07/29 09:27:40;;;;;;;0.40;0.40;;;25.10;91.80;;;;;;5097973;28;20204;-67
2022/07/29 09:30:28;;;;;;;0.40;0.40;;;25.30;91.60;;;;;;5097384;28;20700;-67
2022/07/29 09:33:19;;;;;;;0.40;0.40;;;25.40;91.00;;;;;;5095517;28;20214;-67
2022/07/29 09:36:09;;;;;;;0.40;0.40;;;25.50;90.30;;;;;;5097365;28;20214;-67
2022/07/29 09:39:02;;;;;;;0.40;0.40;;;25.60;89.50;;;;;;5094711;28;20216;-67
2022/07/29 09:41:53;;;;;;;0.40;0.40;;;25.60;89.30;;;;;;5096577;28;20226;-68
2022/07/29 09:44:44;;;;;;;0.40;0.40;;;25.70;89.70;;;;;;5095953;28;20196;-67
2022/07/29 09:47:44;;;;;;;0.50;0.50;;;26.10;88.30;;;;;;5094565;28;20223;-67
2022/07/29 09:50:37;;;;;;;0.40;0.40;;;26.30;86.50;;;;;;5095371;28;20216;-68
2022/07/29 09:53:32;;;;;;;0.40;0.40;;;26.60;84.90;;;;;;5094858;28;20279;-68
2022/07/29 09:56:20;;;;;;;0.40;0.40;;;26.80;83.80;;;;;;5076425;28;20703;-68
2022/07/29 09:59:10;;;;;;;0.40;0.40;;;27.00;81.90;;;;;;5093305;28;20227;-68
2022/07/29 10:02:00;;;;;;;0.40;0.40;;;27.20;81.20;;;;;;5094156;28;20278;-68
2022/07/29 10:04:48;;;;;;;0.40;0.40;;;27.40;79.90;;;;;;5092477;28;20196;-68
2022/07/29 10:07:47;;;;;;;0.40;0.40;;;27.60;79.60;;;;;;5093641;28;20211;-68
2022/07/29 10:10:42;;;;;;;0.40;0.40;;;27.70;78.20;;;;;;5113077;22;20228;-64
2022/07/29 10:13:30;;;;;;;0.40;0.40;;;27.60;77.00;;;;;;5091750;28;20196;-64
2022/07/29 10:16:18;;;;;;;0.40;0.40;;;27.70;76.60;;;;;;5091373;28;20192;-64
2022/07/29 10:19:08;;;;;;;0.40;0.40;;;27.90;76.90;;;;;;5091498;28;20780;-65
2022/07/29 10:21:57;;;;;;;0.40;0.40;;;28.00;74.80;;;;;;5091626;28;20200;-64
2022/07/29 10:24:48;;;;;;;0.40;0.40;;;28.20;72.80;;;;;;5090243;28;20686;-65
2022/07/29 10:27:36;;;;;;;0.40;0.40;;;28.10;72.10;;;;;;5091612;28;20211;-64
2022/07/29 10:30:26;;;;;;;0.40;0.40;;;28.00;71.20;;;;;;5090669;28;20241;-62
2022/07/29 10:33:30;;;;;;;0.85;0.85;;;27.90;71.30;;;;;;5092557;28;20224;-64
2022/07/29 10:36:38;;;;;;;0.50;0.50;;;27.90;71.30;;;;;;5091505;28;20206;-64
2022/07/29 10:39:43;;;;;;;0.43;0.43;;;27.80;71.20;;;;;;5091472;28;20594;-64
2022/07/29 10:42:42;;;;;;;0.40;0.40;;;27.90;71.50;;;;;;5091712;28;20527;-62
2022/07/29 10:45:31;;;;;;;0.40;0.40;;;27.90;71.90;;;;;;5090913;28;20200;-63
2022/07/29 10:48:19;;;;;;;1.13;1.02;;;28.00;71.30;;;;;;5091221;28;20231;-64
2022/07/29 10:51:11;;;;;;;0.40;0.40;;;28.00;67.80;;;;;;5091047;28;20207;-63
2022/07/29 10:54:05;;;;;;;0.40;0.40;;;27.70;67.10;;;;;;5091259;28;20204;-63
2022/07/29 10:56:54;;;;;;;0.60;0.60;;;27.60;67.50;;;;;;5090279;28;20202;-65
2022/07/29 10:59:44;;;;;;;0.40;0.40;;;27.70;68.00;;;;;;5091293;28;20691;-65
2022/07/29 11:02:48;;;;;;;0.40;0.40;;;28.00;67.40;;;;;;5091661;28;20196;-64
2022/07/29 11:05:54;;;;;;;0.88;0.88;;;28.30;66.60;;;;;;5092036;28;20198;-64
2022/07/29 11:08:42;;;;;;;0.40;0.40;;;28.70;64.80;;;;;;5091685;28;20200;-63
2022/07/29 11:11:34;;;;;;;0.80;0.50;;;29.00;65.30;;;;;;5090580;28;20668;-63
2022/07/29 11:14:57;;;;;;;0.40;0.40;;;29.20;63.10;;;;;;5091577;28;20204;-64
2022/07/29 11:18:06;;;;;;;0.40;0.40;;;29.00;63.30;;;;;;5093402;28;20200;-63
2022/07/29 11:21:02;;;;;;;0.40;0.40;;;28.90;63.90;;;;;;5090633;28;20224;-63
2022/07/29 11:23:50;;;;;;;0.40;0.40;;;28.70;64.10;;;;;;5090734;28;20192;-63
2022/07/29 11:26:40;;;;;;;0.40;0.40;;;28.50;65.60;;;;;;5090879;28;20207;-63
2022/07/29 11:29:29;;;;;;;0.40;0.40;;;28.30;65.90;;;;;;5091753;28;20269;-63
2022/07/29 11:32:19;;;;;;;1.02;0.95;;;27.90;66.20;;;;;;5091825;28;20269;-63
2022/07/29 11:35:17;;;;;;;0.40;0.40;;;27.70;67.40;;;;;;5096370;28;20196;-66
2022/07/29 11:38:25;;;;;;;0.40;0.40;;;27.50;68.20;;;;;;5094811;28;20199;-64
2022/07/29 11:41:36;;;;;;;0.40;0.40;;;27.40;69.80;;;;;;5096612;28;20676;-63
2022/07/29 11:44:54;;;;;;;0.40;0.40;;;27.40;69.80;;;;;;5095123;28;20200;-64
2022/07/29 11:47:50;;;;;;;0.40;0.40;;;27.40;68.80;;;;;;5095724;28;20200;-63
2022/07/29 11:50:39;;;;;;;0.40;0.40;;;27.50;68.90;;;;;;5095659;28;20567;-64
2022/07/29 11:53:48;;;;;;;0.40;0.40;;;27.60;69.30;;;;;;5095296;28;20312;-64
2022/07/29 11:56:43;;;;;;;0.40;0.40;;;27.80;69.60;;;;;;5090747;28;20691;-64
2022/07/29 11:59:39;;;;;;;0.40;0.40;;;27.90;70.50;;;;;;5074368;28;20220;-63
2022/07/29 12:02:41;;;;;;;0.73;0.70;;;27.90;70.90;;;;;;5073592;28;20196;-64
2022/07/29 12:05:35;;;;;;;0.40;0.40;;;28.00;70.70;;;;;;5072780;28;20208;-64
2022/07/29 12:08:25;;;;;;;0.40;0.40;;;28.10;69.60;;;;;;5075080;28;20228;-63
2022/07/29 12:11:19;;;;;;;0.50;0.50;;;28.10;70.60;;;;;;5074967;28;20201;-64
2022/07/29 12:14:08;;;;;;;0.40;0.40;;;28.30;70.50;;;;;;5074385;28;20223;-64
2022/07/29 12:16:57;;;;;;;0.40;0.40;;;28.50;70.70;;;;;;5072692;28;20212;-64
2022/07/29 12:19:47;;;;;;;0.40;0.40;;;28.90;70.60;;;;;;5079293;28;20220;-64
2022/07/29 12:22:40;;;;;;;0.40;0.40;;;29.30;69.40;;;;;;5094075;28;20200;-62
2022/07/29 12:25:34;;;;;;;0.40;0.40;;;29.70;69.40;;;;;;5094231;28;20196;-63
2022/07/29 12:28:23;;;;;;;0.40;0.40;;;29.90;67.50;;;;;;5093970;28;20203;-63
2022/07/29 12:31:15;;;;;;;0.50;0.50;;;30.00;68.70;;;;;;5094272;28;20278;-64
2022/07/29 12:34:27;;;;;;;0.85;0.85;;;30.20;68.20;;;;;;5094557;28;20552;-63
2022/07/29 12:37:17;;;;;;;0.40;0.40;;;30.10;67.90;;;;;;5089617;28;20204;-63
2022/07/29 12:40:07;;;;;;;0.50;0.50;;;30.20;67.40;;;;;;5074289;28;20217;-63
2022/07/29 12:43:10;;;;;;;0.40;0.40;;;30.30;68.50;;;;;;5074283;28;20224;-64
2022/07/29 12:45:58;;;;;;;0.40;0.40;;;30.40;67.30;;;;;;5072872;28;20207;-63
2022/07/29 12:48:54;;;;;;;0.40;0.40;;;31.00;65.20;;;;;;5072351;28;20201;-64
2022/07/29 12:51:42;;;;;;;0.40;0.40;;;31.10;66.00;;;;;;5074508;28;20193;-64
2022/07/29 12:54:31;;;;;;;0.50;0.50;;;32.20;64.60;;;;;;5075430;28;20309;-64
2022/07/29 12:57:20;;;;;;;0.40;0.40;;;33.90;60.20;;;;;;5073883;28;20232;-64
2022/07/29 13:00:11;;;;;;;0.40;0.40;;;35.10;58.00;;;;;;5075010;28;20217;-63
2022/07/29 13:03:00;;;;;;;0.50;0.50;;;36.70;55.00;;;;;;5075810;28;20193;-64
2022/07/29 13:05:50;;;;;;;0.50;0.50;;;37.80;52.90;;;;;;5074632;28;20197;-64
2022/07/29 13:08:38;;;;;;;0.47;0.47;;;39.10;49.70;;;;;;5075087;28;20208;-64
2022/07/29 13:11:31;;;;;;;0.40;0.40;;;39.70;48.10;;;;;;5073425;28;20204;-64
2022/07/29 13:14:32;;;;;;;0.50;0.50;;;41.20;46.90;;;;;;5074296;28;20220;-63
2022/07/29 13:17:22;;;;;;;0.50;0.50;;;42.20;44.30;;;;;;5072990;28;20246;-63
2022/07/29 13:20:13;;;;;;;0.50;0.50;;;42.70;43.90;;;;;;5072876;28;20259;-64
2022/07/29 13:23:02;;;;;;;0.45;0.45;;;43.40;42.40;;;;;;5072945;28;20192;-64
2022/07/29 13:25:50;;;;;;;0.50;0.50;;;41.60;42.50;;;;;;5073928;28;20201;-64
2022/07/29 13:28:39;;;;;;;0.50;0.50;;;39.80;44.00;;;;;;5074395;28;20265;-64
2022/07/29 13:31:31;;;;;;;0.60;0.60;;;39.60;45.30;;;;;;5074603;28;20201;-64
2022/07/29 13:34:21;;;;;;;0.50;0.50;;;41.00;43.60;;;;;;5074837;28;20231;-64
2022/07/29 13:37:10;;;;;;;0.50;0.50;;;42.50;42.30;;;;;;5073794;28;20200;-64
2022/07/29 13:39:58;;;;;;;0.50;0.50;;;43.70;40.50;;;;;;5073018;28;20221;-64
2022/07/29 13:42:47;;;;;;;0.50;0.50;;;44.50;40.00;;;;;;5072931;28;20212;-64
2022/07/29 13:45:36;;;;;;;0.52;0.52;;;45.70;39.30;;;;;;5073850;28;20255;-64
2022/07/29 13:48:24;;;;;;;0.50;0.50;;;45.70;38.00;;;;;;5074389;28;20201;-64
2022/07/29 13:51:12;;;;;;;0.50;0.50;;;43.20;38.90;;;;;;5074183;28;20196;-64
2022/07/29 13:54:01;;;;;;;0.50;0.50;;;40.60;41.10;;;;;;5073857;28;20203;-64
2022/07/29 13:56:51;;;;;;;0.50;0.50;;;38.50;43.30;;;;;;5073156;28;20197;-64
2022/07/29 13:59:39;;;;;;;0.45;0.45;;;38.90;44.40;;;;;;5074009;28;20228;-64
2022/07/29 14:02:29;;;;;;;0.50;0.50;;;41.20;41.80;;;;;;5074713;28;20197;-64
2022/07/29 14:05:17;;;;;;;0.50;0.50;;;42.80;40.10;;;;;;5072216;28;20220;-64
2022/07/29 14:08:05;;;;;;;0.40;0.40;;;42.80;39.70;;;;;;5073896;28;20697;-64
2022/07/29 14:10:53;;;;;;;0.50;0.50;;;42.10;40.70;;;;;;5073047;28;20231;-63
2022/07/29 14:13:41;;;;;;;0.40;0.40;;;41.20;41.30;;;;;;5077367;28;20211;-63
2022/07/29 14:16:29;;;;;;;0.50;0.50;;;39.90;41.90;;;;;;5093357;28;20596;-63
2022/07/29 14:19:19;;;;;;;0.50;0.50;;;39.10;42.90;;;;;;5091468;28;20583;-63
2022/07/29 14:22:08;;;;;;;0.50;0.50;;;38.50;44.00;;;;;;5089712;28;20204;-63
2022/07/29 14:24:57;;;;;;;0.50;0.50;;;38.50;44.20;;;;;;5091262;28;20353;-64
2022/07/29 14:27:53;;;;;;;1.10;0.80;;;39.50;43.30;;;;;;5091369;28;20199;-64
2022/07/29 14:30:45;;;;;;;0.50;0.50;;;41.10;42.00;;;;;;5090966;28;20223;-64
2022/07/29 14:33:33;;;;;;;0.50;0.50;;;43.20;40.00;;;;;;5091903;28;20242;-64
2022/07/29 14:36:23;;;;;;;0.50;0.50;;;44.90;38.50;;;;;;5091860;28;20215;-64
2022/07/29 14:39:11;;;;;;;0.60;0.60;;;46.20;36.90;;;;;;5091538;28;20220;-64
2022/07/29 14:41:59;;;;;;;0.50;0.50;;;47.50;36.10;;;;;;5091738;28;20194;-64
2022/07/29 14:44:49;;;;;;;0.60;0.60;;;46.90;35.00;;;;;;5092275;28;20266;-64
2022/07/29 14:47:37;;;;;;;1.58;1.30;;;45.50;35.80;;;;;;5091433;28;20215;-64
2022/07/29 14:50:26;;;;;;;0.50;0.50;;;44.80;36.90;;;;;;5090520;28;20227;-64
2022/07/29 14:53:20;;;;;;;0.50;0.50;;;45.20;36.10;;;;;;5092212;28;20328;-64
2022/07/29 14:56:08;;;;;;;0.98;0.98;;;44.30;36.70;;;;;;5091412;28;20200;-64
2022/07/29 14:59:16;;;;;;;0.50;0.50;;;42.10;38.10;;;;;;5092665;28;20349;-64